Time;durP1;ratioP1;P1;durP2;ratioP2;P2;SDS_P1;SDS_P2;PMS_P1;PMS_P2;Temp;Humidity;BMP_temperature;BMP_pressure;BME280_temperature;BME280_humidity;BME280_pressure;Samples;Min_cycle;Max_cycle;Signal;HPM_P1;HPM_P2
2022/09/15 00:00:47;;;;;;;7.28;2.25;;;;;;;;;;5077486;28;20470;-83
2022/09/15 00:03:13;;;;;;;2.13;1.70;;;;;;;;;;5077752;28;20024;-83
2022/09/15 00:05:38;;;;;;;5.10;1.60;;;;;;;;;;5076195;28;20035;-83
2022/09/15 00:08:03;;;;;;;7.07;2.20;;;;;;;;;;5077958;28;20085;-84
2022/09/15 00:10:29;;;;;;;6.15;1.90;;;;;;;;;;5080155;28;20052;-83
2022/09/15 00:12:55;;;;;;;6.20;1.67;;;;;;;;;;5078941;28;20030;-84
2022/09/15 00:15:21;;;;;;;3.05;1.65;;;;;;;;;;5075055;28;20033;-84
2022/09/15 00:17:49;;;;;;;1.95;1.63;;;;;;;;;;5071489;28;20028;-83
2022/09/15 00:20:16;;;;;;;3.85;1.90;;;;;;;;;;5070784;28;20023;-82
2022/09/15 00:22:42;;;;;;;2.80;1.50;;;;;;;;;;5074259;28;20035;-83
2022/09/15 00:25:08;;;;;;;9.20;1.95;;;;;;;;;;5072280;28;20032;-83
2022/09/15 00:27:33;;;;;;;7.28;1.67;;;;;;;;;;5074266;28;20028;-83
2022/09/15 00:29:59;;;;;;;4.82;1.63;;;;;;;;;;5075539;28;20025;-83
2022/09/15 00:32:24;;;;;;;4.80;1.50;;;;;;;;;;5070372;28;20710;-82
2022/09/15 00:34:50;;;;;;;3.85;1.30;;;;;;;;;;5074644;28;20029;-83
2022/09/15 00:37:16;;;;;;;2.90;1.25;;;;;;;;;;5074155;28;20048;-83
2022/09/15 00:39:41;;;;;;;4.93;1.50;;;;;;;;;;5071406;28;20474;-82
2022/09/15 00:42:16;;;;;;;2.17;1.45;;;;;;;;;;5080646;28;20490;-82
2022/09/15 00:44:57;;;;;;;2.65;1.33;;;;;;;;;;5075687;28;20024;-82
2022/09/15 00:47:27;;;;;;;3.33;1.38;;;;;;;;;;5073798;28;20067;-82
2022/09/15 00:50:00;;;;;;;1.58;1.23;;;;;;;;;;5076651;28;20029;-82
2022/09/15 00:52:27;;;;;;;2.30;1.52;;;;;;;;;;5076790;28;20031;-83
2022/09/15 00:55:07;;;;;;;1.30;1.20;;;;;;;;;;5072382;28;20033;-82
2022/09/15 00:57:51;;;;;;;2.30;1.60;;;;;;;;;;5075205;28;20211;-83
2022/09/15 01:00:22;;;;;;;1.30;1.20;;;;;;;;;;5078602;28;20016;-81
2022/09/15 01:02:48;;;;;;;6.85;1.50;;;;;;;;;;5075146;28;20557;-82
2022/09/15 01:05:16;;;;;;;1.80;1.10;;;;;;;;;;5080102;28;20394;-82
2022/09/15 01:07:47;;;;;;;4.25;1.30;;;;;;;;;;5087480;28;20025;-80
2022/09/15 01:10:22;;;;;;;2.55;1.40;;;;;;;;;;5082775;28;20055;-81
2022/09/15 01:12:47;;;;;;;2.13;1.48;;;;;;;;;;5072217;28;20032;-83
2022/09/15 01:15:14;;;;;;;1.52;1.42;;;;;;;;;;5072970;28;20020;-82
2022/09/15 01:17:54;;;;;;;1.10;1.00;;;;;;;;;;5073653;28;20016;-82
2022/09/15 01:20:19;;;;;;;6.68;1.40;;;;;;;;;;5075817;28;20402;-84
2022/09/15 01:23:01;;;;;;;2.15;1.20;;;;;;;;;;5073059;28;20021;-83
2022/09/15 01:25:38;;;;;;;1.10;1.00;;;;;;;;;;5078024;28;20495;-83
2022/09/15 01:28:23;;;;;;;3.22;1.10;;;;;;;;;;5083497;28;20050;-83
2022/09/15 01:31:22;;;;;;;1.00;0.90;;;;;;;;;;5068968;28;20593;-82
2022/09/15 01:33:56;;;;;;;1.55;1.30;;;;;;;;;;5072830;28;20031;-82
2022/09/15 01:36:57;;;;;;;7.63;1.42;;;;;;;;;;5069484;28;20028;-82
2022/09/15 01:39:27;;;;;;;1.95;1.15;;;;;;;;;;5073192;28;20032;-83
2022/09/15 01:41:58;;;;;;;5.03;1.50;;;;;;;;;;5087943;28;20035;-80
2022/09/15 01:44:56;;;;;;;3.57;1.30;;;;;;;;;;5069667;28;20067;-80
2022/09/15 01:47:22;;;;;;;3.45;1.02;;;;;;;;;;5090806;28;20818;-81
2022/09/15 01:49:52;;;;;;;3.03;0.98;;;;;;;;;;5072690;28;20059;-81
2022/09/15 01:52:21;;;;;;;3.55;1.20;;;;;;;;;;5071672;28;20051;-83
2022/09/15 01:54:49;;;;;;;2.28;1.33;;;;;;;;;;5082682;28;20032;-83
2022/09/15 01:57:21;;;;;;;1.55;0.98;;;;;;;;;;5079929;28;20028;-82
2022/09/15 01:59:48;;;;;;;1.20;1.10;;;;;;;;;;5074438;28;20024;-82
2022/09/15 02:02:20;;;;;;;3.35;1.15;;;;;;;;;;5073092;28;20390;-82
2022/09/15 02:04:50;;;;;;;5.30;1.75;;;;;;;;;;5076078;28;20028;-84
2022/09/15 02:07:34;;;;;;;1.85;1.13;;;;;;;;;;5076262;28;20086;-81
2022/09/15 02:10:16;;;;;;;2.78;1.20;;;;;;;;;;5077881;28;20078;-81
2022/09/15 02:12:50;;;;;;;1.02;1.02;;;;;;;;;;5077625;28;20051;-82
2022/09/15 02:15:27;;;;;;;3.22;1.50;;;;;;;;;;5072466;28;20425;-84
2022/09/15 02:17:54;;;;;;;4.00;1.02;;;;;;;;;;5071186;28;20036;-83
2022/09/15 02:20:37;;;;;;;1.23;1.00;;;;;;;;;;5071321;28;20031;-83
2022/09/15 02:23:14;;;;;;;3.13;1.27;;;;;;;;;;5069761;28;20070;-82
2022/09/15 02:25:50;;;;;;;4.35;1.42;;;;;;;;;;5086132;28;20721;-82
2022/09/15 02:28:18;;;;;;;1.77;1.10;;;;;;;;;;5085215;28;20028;-83
2022/09/15 02:30:45;;;;;;;4.32;1.00;;;;;;;;;;5077422;28;20040;-82
2022/09/15 02:33:15;;;;;;;2.15;1.10;;;;;;;;;;5075945;28;20086;-82
2022/09/15 02:35:42;;;;;;;4.97;1.20;;;;;;;;;;5074319;28;20028;-82
2022/09/15 02:38:08;;;;;;;1.90;1.27;;;;;;;;;;5074265;28;20032;-82
2022/09/15 02:40:36;;;;;;;1.80;1.20;;;;;;;;;;5074007;28;20060;-81
2022/09/15 02:43:04;;;;;;;1.30;1.17;;;;;;;;;;5075302;28;20031;-82
2022/09/15 02:45:30;;;;;;;2.65;1.15;;;;;;;;;;5075609;28;20021;-81
2022/09/15 02:47:56;;;;;;;2.17;1.20;;;;;;;;;;5075444;28;20025;-82
2022/09/15 02:50:25;;;;;;;2.78;1.45;;;;;;;;;;5076035;28;20029;-83
2022/09/15 02:52:50;;;;;;;1.58;1.10;;;;;;;;;;5075954;28;20091;-82
2022/09/15 02:55:15;;;;;;;3.25;1.30;;;;;;;;;;5081891;28;20036;-82
2022/09/15 02:57:41;;;;;;;8.13;1.25;;;;;;;;;;5078748;28;20024;-81
2022/09/15 03:00:13;;;;;;;3.08;1.35;;;;;;;;;;5078529;28;20040;-82
2022/09/15 03:02:45;;;;;;;5.30;1.10;;;;;;;;;;5064125;28;20371;-82
2022/09/15 03:05:13;;;;;;;1.38;1.27;;;;;;;;;;5080157;28;20036;-79
2022/09/15 03:07:38;;;;;;;2.38;1.33;;;;;;;;;;5073790;28;20500;-82
2022/09/15 03:10:05;;;;;;;4.90;1.25;;;;;;;;;;5074995;28;20029;-82
2022/09/15 03:12:36;;;;;;;1.35;0.98;;;;;;;;;;5073568;28;20054;-82
2022/09/15 03:15:01;;;;;;;1.15;1.05;;;;;;;;;;5073839;28;20031;-81
2022/09/15 03:17:27;;;;;;;0.70;0.70;;;;;;;;;;5074479;28;20088;-83
2022/09/15 03:19:52;;;;;;;1.23;1.00;;;;;;;;;;5078343;28;20028;-82
2022/09/15 03:22:17;;;;;;;3.00;1.30;;;;;;;;;;5076682;28;20024;-82
2022/09/15 03:24:42;;;;;;;6.25;1.20;;;;;;;;;;5091164;28;20032;-81
2022/09/15 03:27:08;;;;;;;2.78;1.30;;;;;;;;;;5094892;28;20389;-81
2022/09/15 03:29:33;;;;;;;1.77;1.15;;;;;;;;;;5095094;28;20028;-81
2022/09/15 03:31:58;;;;;;;1.45;0.93;;;;;;;;;;5094874;28;20024;-81
2022/09/15 03:34:24;;;;;;;3.47;0.90;;;;;;;;;;5080254;28;20500;-82
2022/09/15 03:36:49;;;;;;;5.28;0.93;;;;;;;;;;5070378;28;20032;-81
2022/09/15 03:39:14;;;;;;;1.00;0.93;;;;;;;;;;5072602;28;20016;-80
2022/09/15 03:41:40;;;;;;;2.13;0.80;;;;;;;;;;5072423;28;20021;-80
2022/09/15 03:44:08;;;;;;;2.05;0.90;;;;;;;;;;5073001;28;20029;-80
2022/09/15 03:46:34;;;;;;;1.23;1.13;;;;;;;;;;5071384;28;20115;-80
2022/09/15 03:48:59;;;;;;;3.30;1.00;;;;;;;;;;5071963;28;20078;-80
2022/09/15 03:51:24;;;;;;;1.33;1.00;;;;;;;;;;5069662;28;20382;-81
2022/09/15 03:53:50;;;;;;;4.50;0.90;;;;;;;;;;5075193;28;20029;-81
2022/09/15 03:56:23;;;;;;;2.08;1.10;;;;;;;;;;5078712;28;20012;-81
2022/09/15 03:58:49;;;;;;;5.30;1.02;;;;;;;;;;5080045;28;20099;-81
2022/09/15 04:01:17;;;;;;;0.63;0.63;;;;;;;;;;5079556;28;20016;-80
2022/09/15 04:03:42;;;;;;;2.92;1.10;;;;;;;;;;5080097;28;20420;-81
2022/09/15 04:06:07;;;;;;;3.13;0.90;;;;;;;;;;5217398;22;20060;-80
2022/09/15 04:08:32;;;;;;;1.08;0.80;;;;;;;;;;5036953;28;20109;-80
2022/09/15 04:10:59;;;;;;;2.53;0.95;;;;;;;;;;5038960;28;20048;-80
2022/09/15 04:13:24;;;;;;;4.70;1.17;;;;;;;;;;5038304;28;20040;-80
2022/09/15 04:15:59;;;;;;;2.55;1.00;;;;;;;;;;5034753;28;20025;-79
2022/09/15 04:18:25;;;;;;;3.45;1.20;;;;;;;;;;5019388;28;20034;-79
2022/09/15 04:20:51;;;;;;;1.10;0.90;;;;;;;;;;5020321;28;20118;-79
2022/09/15 04:23:16;;;;;;;1.10;0.90;;;;;;;;;;5022853;28;20471;-79
2022/09/15 04:25:41;;;;;;;4.32;0.90;;;;;;;;;;5015654;28;20128;-78
2022/09/15 04:28:07;;;;;;;3.38;1.63;;;;;;;;;;5016907;28;20050;-79
2022/09/15 04:30:32;;;;;;;1.60;1.00;;;;;;;;;;5023998;28;20032;-79
2022/09/15 04:32:57;;;;;;;1.00;0.90;;;;;;;;;;5017347;28;20026;-80
2022/09/15 04:35:23;;;;;;;4.00;1.02;;;;;;;;;;5025120;28;20122;-79
2022/09/15 04:37:48;;;;;;;3.50;1.15;;;;;;;;;;5027219;28;20049;-80
2022/09/15 04:40:14;;;;;;;2.38;1.05;;;;;;;;;;5024139;28;20073;-80
2022/09/15 04:42:39;;;;;;;1.27;1.05;;;;;;;;;;5017726;28;20041;-80
2022/09/15 04:45:06;;;;;;;1.33;1.13;;;;;;;;;;5020695;28;20029;-80
2022/09/15 04:47:32;;;;;;;2.17;1.35;;;;;;;;;;5023926;28;20036;-78
2022/09/15 04:49:57;;;;;;;0.73;0.73;;;;;;;;;;5019375;28;20026;-81
2022/09/15 04:52:23;;;;;;;1.20;1.10;;;;;;;;;;5019852;28;20036;-81
2022/09/15 04:54:48;;;;;;;5.00;1.02;;;;;;;;;;5020640;28;20097;-81
2022/09/15 04:57:13;;;;;;;1.35;1.05;;;;;;;;;;5021034;28;20022;-82
2022/09/15 04:59:39;;;;;;;1.63;1.00;;;;;;;;;;5018082;28;20025;-84
2022/09/15 05:02:04;;;;;;;1.50;1.10;;;;;;;;;;5018249;28;20113;-83
2022/09/15 05:04:30;;;;;;;2.00;1.20;;;;;;;;;;5016778;28;20070;-83
2022/09/15 05:06:55;;;;;;;4.40;1.30;;;;;;;;;;5022336;28;20017;-83
2022/09/15 05:09:20;;;;;;;2.42;1.30;;;;;;;;;;5029988;28;20033;-82
2022/09/15 05:11:46;;;;;;;1.23;1.10;;;;;;;;;;5030712;28;20416;-81
2022/09/15 05:14:11;;;;;;;4.43;1.15;;;;;;;;;;5019137;28;20395;-81
2022/09/15 05:16:36;;;;;;;2.53;1.40;;;;;;;;;;5023172;28;20445;-80
2022/09/15 05:19:03;;;;;;;2.70;0.98;;;;;;;;;;5027504;28;20025;-80
2022/09/15 05:21:29;;;;;;;1.65;1.20;;;;;;;;;;5023249;28;20026;-81
2022/09/15 05:23:55;;;;;;;0.98;0.90;;;;;;;;;;5022420;28;20388;-81
2022/09/15 05:26:25;;;;;;;3.80;1.50;;;;;;;;;;5029417;28;20625;-80
2022/09/15 05:28:50;;;;;;;1.85;1.35;;;;;;;;;;5021134;28;20038;-80
2022/09/15 05:31:25;;;;;;;2.88;1.50;;;;;;;;;;5018533;28;20052;-80
2022/09/15 05:33:52;;;;;;;2.33;1.10;;;;;;;;;;5024951;28;20109;-80
2022/09/15 05:36:20;;;;;;;1.35;1.20;;;;;;;;;;5020639;28;20049;-80
2022/09/15 05:38:45;;;;;;;1.83;0.95;;;;;;;;;;5009578;28;20037;-81
2022/09/15 05:41:14;;;;;;;1.30;1.20;;;;;;;;;;5005779;28;20116;-81
2022/09/15 05:43:40;;;;;;;2.05;1.23;;;;;;;;;;5023711;28;20244;-81
2022/09/15 05:46:06;;;;;;;4.28;1.30;;;;;;;;;;5028800;28;20005;-80
2022/09/15 05:48:32;;;;;;;2.80;1.17;;;;;;;;;;5037507;28;20021;-80
2022/09/15 05:50:58;;;;;;;1.42;1.17;;;;;;;;;;5021556;28;20033;-80
2022/09/15 05:53:24;;;;;;;3.88;1.27;;;;;;;;;;5021005;28;20091;-81
2022/09/15 05:56:01;;;;;;;2.38;1.17;;;;;;;;;;5018991;28;20042;-81
2022/09/15 05:58:28;;;;;;;3.00;1.40;;;;;;;;;;5013567;28;20049;-80
2022/09/15 06:00:54;;;;;;;2.50;1.13;;;;;;;;;;5022883;28;20120;-81
2022/09/15 06:03:20;;;;;;;5.03;1.40;;;;;;;;;;5024898;28;20022;-81
2022/09/15 06:05:46;;;;;;;1.83;1.60;;;;;;;;;;5018351;28;20030;-83
2022/09/15 06:08:12;;;;;;;2.50;1.10;;;;;;;;;;5024739;28;20029;-82
2022/09/15 06:10:38;;;;;;;2.90;1.38;;;;;;;;;;5016803;28;20153;-82
2022/09/15 06:13:03;;;;;;;0.90;0.90;;;;;;;;;;5016313;28;20112;-81
2022/09/15 06:15:30;;;;;;;2.20;1.30;;;;;;;;;;5018395;28;20065;-81
2022/09/15 06:17:56;;;;;;;5.22;1.30;;;;;;;;;;5027425;28;20023;-80
2022/09/15 06:20:24;;;;;;;3.35;1.02;;;;;;;;;;5019409;28;20053;-81
2022/09/15 06:22:52;;;;;;;1.50;1.30;;;;;;;;;;5015051;28;20044;-83
2022/09/15 06:25:17;;;;;;;2.33;1.38;;;;;;;;;;5015340;28;20506;-83
2022/09/15 06:27:43;;;;;;;5.65;1.45;;;;;;;;;;5017491;28;20029;-83
2022/09/15 06:30:09;;;;;;;6.38;1.25;;;;;;;;;;5024234;28;20096;-83
2022/09/15 06:32:35;;;;;;;3.17;1.60;;;;;;;;;;5016078;28;20049;-83
2022/09/15 06:35:06;;;;;;;4.07;1.40;;;;;;;;;;5027402;28;20057;-83
2022/09/15 06:37:34;;;;;;;3.13;1.20;;;;;;;;;;5011286;28;20032;-83
2022/09/15 06:40:00;;;;;;;4.22;1.48;;;;;;;;;;5039483;28;20044;-83
2022/09/15 06:42:26;;;;;;;2.15;1.45;;;;;;;;;;5048175;28;20065;-81
2022/09/15 06:44:52;;;;;;;5.03;1.80;;;;;;;;;;5033421;28;20021;-82
2022/09/15 06:47:17;;;;;;;2.42;1.30;;;;;;;;;;5034849;28;20040;-82
2022/09/15 06:49:42;;;;;;;4.35;1.42;;;;;;;;;;5026685;28;20076;-85
2022/09/15 06:52:08;;;;;;;9.32;2.15;;;;;;;;;;5019154;28;20088;-84
2022/09/15 06:54:33;;;;;;;3.88;1.35;;;;;;;;;;5018404;28;20026;-84
2022/09/15 06:56:58;;;;;;;5.15;1.58;;;;;;;;;;5017345;28;20022;-81
2022/09/15 06:59:24;;;;;;;2.72;1.40;;;;;;;;;;5020238;28;20029;-83
2022/09/15 07:01:53;;;;;;;1.63;1.02;;;;;;;;;;5005943;28;20026;-81
2022/09/15 07:04:20;;;;;;;5.32;1.33;;;;;;;;;;5020767;28;20022;-82
2022/09/15 07:06:46;;;;;;;4.32;1.52;;;;;;;;;;5021360;28;20033;-83
2022/09/15 07:09:12;;;;;;;1.30;1.05;;;;;;;;;;5018415;28;20025;-81
2022/09/15 07:11:38;;;;;;;2.83;1.20;;;;;;;;;;5016032;28;20164;-82
2022/09/15 07:14:04;;;;;;;4.28;1.05;;;;;;;;;;5026280;28;20025;-83
2022/09/15 07:16:32;;;;;;;1.63;0.90;;;;;;;;;;5031725;28;20344;-81
2022/09/15 07:19:00;;;;;;;2.95;1.10;;;;;;;;;;5023722;28;20040;-82
2022/09/15 07:21:26;;;;;;;3.53;0.73;;;;;;;;;;5036993;28;20032;-81
2022/09/15 07:23:51;;;;;;;1.08;1.00;;;;;;;;;;5021951;28;20486;-81
2022/09/15 07:26:20;;;;;;;2.35;1.10;;;;;;;;;;5015493;28;20022;-81
2022/09/15 07:28:56;;;;;;;1.00;0.80;;;;;;;;;;5019068;28;20018;-80
2022/09/15 07:31:23;;;;;;;3.60;0.70;;;;;;;;;;5019253;28;20036;-81
2022/09/15 07:33:48;;;;;;;6.05;1.50;;;;;;;;;;5019801;28;20026;-81
2022/09/15 07:36:14;;;;;;;4.95;0.90;;;;;;;;;;5022865;28;20021;-80
2022/09/15 07:38:42;;;;;;;2.83;0.80;;;;;;;;;;5030346;28;20033;-80
2022/09/15 07:41:10;;;;;;;3.45;1.10;;;;;;;;;;5019197;28;20022;-80
2022/09/15 07:43:36;;;;;;;3.08;0.98;;;;;;;;;;5019326;28;20029;-81
2022/09/15 07:46:02;;;;;;;0.70;0.70;;;;;;;;;;5024132;28;20029;-81
2022/09/15 07:48:28;;;;;;;3.22;0.95;;;;;;;;;;5017204;28;20061;-81
2022/09/15 07:50:53;;;;;;;1.27;0.75;;;;;;;;;;5020137;28;20048;-80
2022/09/15 07:53:19;;;;;;;2.92;1.13;;;;;;;;;;5020870;28;20488;-80
2022/09/15 07:55:45;;;;;;;1.63;1.10;;;;;;;;;;5037627;28;20049;-80
2022/09/15 07:58:10;;;;;;;1.13;0.85;;;;;;;;;;5028628;28;20029;-79
2022/09/15 08:00:37;;;;;;;4.43;0.90;;;;;;;;;;5026730;28;20026;-79
2022/09/15 08:03:03;;;;;;;1.83;0.70;;;;;;;;;;5014018;28;20018;-81
2022/09/15 08:05:28;;;;;;;2.72;0.95;;;;;;;;;;5018660;28;20377;-80
2022/09/15 08:07:55;;;;;;;1.85;0.80;;;;;;;;;;5020478;28;20108;-80
2022/09/15 08:10:24;;;;;;;1.05;0.70;;;;;;;;;;5016746;28;20108;-80
2022/09/15 08:12:50;;;;;;;0.70;0.50;;;;;;;;;;5017735;28;20038;-80
2022/09/15 08:15:16;;;;;;;2.00;0.85;;;;;;;;;;5018857;28;20102;-81
2022/09/15 08:17:41;;;;;;;1.02;0.82;;;;;;;;;;5020209;28;20048;-82
2022/09/15 08:20:07;;;;;;;2.65;0.70;;;;;;;;;;5015066;28;20041;-83
2022/09/15 08:22:32;;;;;;;1.85;0.90;;;;;;;;;;5005723;28;20026;-82
2022/09/15 08:24:58;;;;;;;0.90;0.90;;;;;;;;;;5003843;28;20122;-82
2022/09/15 08:27:23;;;;;;;1.88;0.80;;;;;;;;;;5013001;28;20446;-83
2022/09/15 08:29:48;;;;;;;0.75;0.75;;;;;;;;;;5013293;28;20087;-82
2022/09/15 08:32:14;;;;;;;2.20;0.82;;;;;;;;;;5026462;28;20118;-81
2022/09/15 08:34:40;;;;;;;0.95;0.70;;;;;;;;;;5024290;28;20693;-83
2022/09/15 08:37:05;;;;;;;2.42;0.80;;;;;;;;;;5025096;28;20026;-83
2022/09/15 08:39:30;;;;;;;0.65;0.65;;;;;;;;;;5021230;28;20029;-82
2022/09/15 08:42:00;;;;;;;1.30;0.68;;;;;;;;;;5020511;28;20069;-81
2022/09/15 08:44:54;;;;;;;0.60;0.57;;;;;;;;;;5019177;28;20046;-81
2022/09/15 08:47:25;;;;;;;3.80;0.95;;;;;;;;;;5033174;28;20036;-81
2022/09/15 08:50:06;;;;;;;0.85;0.60;;;;;;;;;;5023277;28;20211;-81
2022/09/15 08:52:38;;;;;;;2.03;0.85;;;;;;;;;;5011975;28;20459;-81
2022/09/15 08:55:32;;;;;;;3.03;0.77;;;;;;;;;;5018373;28;20028;-80
2022/09/15 08:57:57;;;;;;;0.85;0.63;;;;;;;;;;5014892;28;20076;-80
2022/09/15 09:00:23;;;;;;;1.13;0.70;;;;;;;;;;5022068;28;20029;-82
2022/09/15 09:03:22;;;;;;;0.57;0.43;;;;;;;;;;5038531;28;20083;-82
2022/09/15 09:05:58;;;;;;;0.40;0.40;;;;;;;;;;5018991;28;20037;-81
2022/09/15 09:08:43;;;;;;;2.78;0.30;;;;;;;;;;5017577;28;20514;-80
2022/09/15 09:11:46;;;;;;;1.98;0.28;;;;;;;;;;4989228;28;20133;-80
2022/09/15 09:14:20;;;;;;;0.70;0.38;;;;;;;;;;5023257;28;20029;-81
2022/09/15 09:17:06;;;;;;;1.10;0.52;;;;;;;;;;5027786;28;20017;-81
2022/09/15 09:20:11;;;;;;;0.55;0.38;;;;;;;;;;5016144;28;20026;-81
2022/09/15 09:22:40;;;;;;;0.32;0.30;;;;;;;;;;5019343;28;20537;-82
2022/09/15 09:25:11;;;;;;;0.32;0.32;;;;;;;;;;5017110;28;20021;-81
2022/09/15 09:27:38;;;;;;;0.50;0.50;;;;;;;;;;5016288;28;20357;-81
2022/09/15 09:30:15;;;;;;;2.53;0.45;;;;;;;;;;5003019;28;20031;-80
2022/09/15 09:33:02;;;;;;;0.45;0.40;;;;;;;;;;5020573;28;20030;-81
2022/09/15 09:35:40;;;;;;;3.00;0.70;;;;;;;;;;5026053;28;20082;-81
2022/09/15 09:38:08;;;;;;;4.93;0.70;;;;;;;;;;5013439;28;20045;-82
2022/09/15 09:40:36;;;;;;;1.00;0.40;;;;;;;;;;5021574;28;20120;-83
2022/09/15 09:43:01;;;;;;;1.13;0.60;;;;;;;;;;5016443;28;20305;-84
2022/09/15 09:45:26;;;;;;;3.15;0.95;;;;;;;;;;5015008;28;20033;-82
2022/09/15 09:47:58;;;;;;;1.75;0.85;;;;;;;;;;5015832;28;20442;-82
2022/09/15 09:50:41;;;;;;;1.75;0.40;;;;;;;;;;5015714;28;20037;-83
2022/09/15 09:53:26;;;;;;;0.88;0.65;;;;;;;;;;5016098;28;20441;-83
2022/09/15 09:55:54;;;;;;;1.55;0.65;;;;;;;;;;5017459;28;20034;-83
2022/09/15 09:58:24;;;;;;;2.60;0.80;;;;;;;;;;5015708;28;20392;-83
2022/09/15 10:00:51;;;;;;;0.90;0.57;;;;;;;;;;5017559;28;20030;-84
2022/09/15 10:03:22;;;;;;;4.00;0.57;;;;;;;;;;5015369;28;20018;-82
2022/09/15 10:08:19;;;;;;;2.63;1.25;;;;;;;;;;5072721;22;20041;-86
2022/09/15 10:10:50;;;;;;;1.40;1.30;;;;;;;;;;5055332;28;20029;-86
2022/09/15 10:13:16;;;;;;;3.42;1.95;;;;;;;;;;5037883;28;20052;-86
2022/09/15 10:15:42;;;;;;;2.58;1.50;;;;;;;;;;5055132;28;20038;-86
2022/09/15 10:18:25;;;;;;;2.03;1.55;;;;;;;;;;5055420;28;20028;-86
2022/09/15 10:20:51;;;;;;;2.20;1.45;;;;;;;;;;5056951;28;20033;-87
2022/09/15 10:23:16;;;;;;;1.75;1.65;;;;;;;;;;5065759;28;20028;-87
2022/09/15 10:25:42;;;;;;;1.88;1.50;;;;;;;;;;5056411;28;20544;-88
2022/09/15 10:28:07;;;;;;;2.13;1.80;;;;;;;;;;5056162;28;20096;-87
2022/09/15 10:30:33;;;;;;;2.40;1.88;;;;;;;;;;5064913;28;20013;-86
2022/09/15 10:33:27;;;;;;;6.20;2.53;;;;;;;;;;5075530;28;20093;-86
2022/09/15 10:35:54;;;;;;;3.20;2.00;;;;;;;;;;5067443;28;20078;-86
2022/09/15 10:38:37;;;;;;;7.75;2.80;;;;;;;;;;5054726;28;20027;-88
2022/09/15 10:41:09;;;;;;;5.45;2.20;;;;;;;;;;5054960;28;20017;-87
2022/09/15 10:43:53;;;;;;;3.85;2.25;;;;;;;;;;5035009;28;20502;-87
2022/09/15 10:46:45;;;;;;;4.07;2.20;;;;;;;;;;5039489;28;20025;-86
2022/09/15 10:49:16;;;;;;;5.00;2.28;;;;;;;;;;5024004;28;20033;-87
2022/09/15 10:52:08;;;;;;;2.17;1.98;;;;;;;;;;5034754;28;20091;-88
2022/09/15 10:54:40;;;;;;;;;;;;;;;;;;5037064;28;20034;-85
2022/09/15 10:57:23;;;;;;;2.70;2.42;;;;;;;;;;5053489;28;19916;-87
2022/09/15 11:00:01;;;;;;;4.05;2.80;;;;;;;;;;5037559;28;20029;-87
2022/09/15 11:03:02;;;;;;;2.78;2.50;;;;;;;;;;5056348;28;20858;-88
2022/09/15 11:06:24;;;;;;;5.15;2.78;;;;;;;;;;5058790;28;20036;-88
2022/09/15 11:09:45;;;;;;;4.75;3.22;;;;;;;;;;5047025;28;20641;-88
2022/09/15 11:12:17;;;;;;;6.45;2.80;;;;;;;;;;5060814;28;20092;-87
2022/09/15 11:14:50;;;;;;;5.15;2.45;;;;;;;;;;5044905;28;20375;-89
2022/09/15 11:17:42;;;;;;;4.70;2.85;;;;;;;;;;5059733;28;20051;-88
2022/09/15 11:20:32;;;;;;;4.97;2.65;;;;;;;;;;5051181;28;20035;-89
2022/09/15 11:23:22;;;;;;;4.80;2.70;;;;;;;;;;5054726;28;20029;-88
2022/09/15 11:26:01;;;;;;;5.72;3.00;;;;;;;;;;5038464;28;20379;-89
2022/09/15 11:28:47;;;;;;;4.53;2.88;;;;;;;;;;5071503;28;20032;-88
2022/09/15 11:31:34;;;;;;;4.32;3.00;;;;;;;;;;5048266;28;20068;-89
2022/09/15 11:34:10;;;;;;;4.72;3.00;;;;;;;;;;5035693;28;20437;-88
2022/09/15 11:36:54;;;;;;;4.95;2.30;;;;;;;;;;5055575;28;20017;-87
2022/09/15 11:39:28;;;;;;;8.95;3.00;;;;;;;;;;5056420;28;20067;-87
2022/09/15 11:42:14;;;;;;;7.70;3.20;;;;;;;;;;5038431;28;20544;-88
2022/09/15 11:44:42;;;;;;;4.80;2.33;;;;;;;;;;5037655;28;20021;-89
2022/09/15 11:47:25;;;;;;;4.90;2.58;;;;;;;;;;5055911;28;20029;-88
2022/09/15 11:49:59;;;;;;;3.10;2.55;;;;;;;;;;5061979;28;20025;-88
2022/09/15 11:52:38;;;;;;;3.03;2.53;;;;;;;;;;5057106;28;20100;-88
2022/09/15 11:55:15;;;;;;;4.43;2.97;;;;;;;;;;5054418;28;20116;-88
2022/09/15 11:57:47;;;;;;;5.07;3.20;;;;;;;;;;5053666;28;20021;-88
2022/09/15 12:00:14;;;;;;;6.20;3.63;;;;;;;;;;5048249;28;20044;-88
2022/09/15 12:12:46;;;;;;;9.35;3.45;;;;;;;;;;5053774;28;20044;-88
2022/09/15 12:15:17;;;;;;;5.38;3.38;;;;;;;;;;5056509;28;20048;-88
2022/09/15 12:18:01;;;;;;;6.18;2.97;;;;;;;;;;5039176;28;20033;-88
2022/09/15 12:21:02;;;;;;;3.47;2.53;;;;;;;;;;5061530;28;20018;-85
2022/09/15 12:23:38;;;;;;;9.27;2.33;;;;;;;;;;5029696;28;20285;-89
2022/09/15 12:26:07;;;;;;;4.00;2.38;;;;;;;;;;5050692;28;20020;-89
2022/09/15 12:28:53;;;;;;;3.90;2.47;;;;;;;;;;5041692;28;20028;-88
2022/09/15 12:31:22;;;;;;;4.65;2.55;;;;;;;;;;5043426;28;20410;-87
2022/09/15 12:33:54;;;;;;;6.53;2.20;;;;;;;;;;5040032;28;20025;-88
2022/09/15 12:36:45;;;;;;;10.23;2.42;;;;;;;;;;5057587;28;20032;-87
2022/09/15 12:39:21;;;;;;;4.00;2.42;;;;;;;;;;5058668;28;20020;-87
2022/09/15 12:41:54;;;;;;;4.05;2.38;;;;;;;;;;5057375;28;20055;-87
2022/09/15 12:44:28;;;;;;;4.68;3.17;;;;;;;;;;5037616;28;20032;-86
2022/09/15 12:46:56;;;;;;;6.70;2.90;;;;;;;;;;5047485;28;20478;-87
2022/09/15 12:49:40;;;;;;;7.40;3.00;;;;;;;;;;5058327;28;20029;-87
2022/09/15 12:52:07;;;;;;;2.92;2.63;;;;;;;;;;5057625;28;20433;-87
2022/09/15 12:54:37;;;;;;;4.18;2.58;;;;;;;;;;5053480;28;20017;-87
2022/09/15 12:57:05;;;;;;;3.63;2.25;;;;;;;;;;5057511;28;20032;-87
2022/09/15 12:59:30;;;;;;;5.75;2.75;;;;;;;;;;5042204;28;20116;-87
2022/09/15 13:01:56;;;;;;;4.38;2.90;;;;;;;;;;5054169;28;20032;-86
2022/09/15 13:04:21;;;;;;;4.03;2.38;;;;;;;;;;5061773;28;20037;-86
2022/09/15 13:07:14;;;;;;;3.88;2.40;;;;;;;;;;5053380;28;20033;-86
2022/09/15 13:09:58;;;;;;;3.60;2.38;;;;;;;;;;5024398;28;20020;-86
2022/09/15 13:12:30;;;;;;;5.20;2.67;;;;;;;;;;5034347;28;20068;-86
2022/09/15 13:14:58;;;;;;;4.47;2.92;;;;;;;;;;5051589;28;20021;-85
2022/09/15 13:17:24;;;;;;;3.08;2.78;;;;;;;;;;5050560;28;20102;-86
2022/09/15 13:19:53;;;;;;;7.22;2.72;;;;;;;;;;5054240;28;20033;-86
2022/09/15 13:22:31;;;;;;;5.07;2.80;;;;;;;;;;5053876;28;20039;-86
2022/09/15 13:25:02;;;;;;;2.85;2.42;;;;;;;;;;5051133;28;20021;-86
2022/09/15 13:27:37;;;;;;;7.53;2.85;;;;;;;;;;5051329;28;20033;-87
2022/09/15 13:30:21;;;;;;;5.68;2.58;;;;;;;;;;5056064;28;20078;-86
2022/09/15 13:33:08;;;;;;;6.13;2.90;;;;;;;;;;5047734;28;20029;-87
2022/09/15 13:35:36;;;;;;;5.05;2.97;;;;;;;;;;5050753;28;20047;-86
2022/09/15 13:38:14;;;;;;;4.35;2.40;;;;;;;;;;5055714;28;20061;-86
2022/09/15 13:41:03;;;;;;;3.53;2.20;;;;;;;;;;5038313;28;20071;-86
2022/09/15 13:43:53;;;;;;;3.83;2.20;;;;;;;;;;5053908;28;20032;-86
2022/09/15 13:46:50;;;;;;;3.45;2.30;;;;;;;;;;5054960;28;20104;-87
2022/09/15 13:49:49;;;;;;;3.65;2.30;;;;;;;;;;5041791;28;20025;-87
2022/09/15 13:52:17;;;;;;;3.75;2.42;;;;;;;;;;5057277;28;20031;-85
2022/09/15 13:55:14;;;;;;;2.17;2.00;;;;;;;;;;5057693;28;20085;-87
2022/09/15 13:57:42;;;;;;;4.63;2.10;;;;;;;;;;5057538;28;20086;-86
2022/09/15 14:00:15;;;;;;;3.38;2.28;;;;;;;;;;5056321;28;20103;-88
2022/09/15 14:02:43;;;;;;;3.88;2.40;;;;;;;;;;5055115;28;20108;-87
2022/09/15 14:05:09;;;;;;;3.75;2.63;;;;;;;;;;5055584;28;20454;-86
2022/09/15 14:07:34;;;;;;;5.35;2.85;;;;;;;;;;5054490;28;20493;-85
2022/09/15 14:10:00;;;;;;;3.58;2.75;;;;;;;;;;5054281;28;20025;-85
2022/09/15 14:12:25;;;;;;;2.83;2.60;;;;;;;;;;5055084;28;20033;-86
2022/09/15 14:14:55;;;;;;;4.30;2.88;;;;;;;;;;5037473;28;20493;-87
2022/09/15 14:17:23;;;;;;;5.40;2.65;;;;;;;;;;5024171;28;20517;-85
2022/09/15 14:19:51;;;;;;;7.30;2.92;;;;;;;;;;5053761;28;20371;-86
2022/09/15 14:22:26;;;;;;;3.47;2.45;;;;;;;;;;5055143;28;20107;-85
2022/09/15 14:24:52;;;;;;;5.28;2.40;;;;;;;;;;5037291;28;20024;-88
2022/09/15 14:27:30;;;;;;;4.20;2.33;;;;;;;;;;5054281;28;20021;-87
2022/09/15 14:29:59;;;;;;;2.90;2.53;;;;;;;;;;5055079;28;20108;-86
2022/09/15 14:32:27;;;;;;;3.70;2.88;;;;;;;;;;5055594;28;20107;-88
2022/09/15 14:34:54;;;;;;;5.40;2.58;;;;;;;;;;5039167;28;20029;-87
2022/09/15 14:37:26;;;;;;;4.47;2.60;;;;;;;;;;5057021;28;20074;-86
2022/09/15 14:39:56;;;;;;;4.13;2.60;;;;;;;;;;5038273;28;20138;-86
2022/09/15 14:42:39;;;;;;;5.82;2.25;;;;;;;;;;5057150;28;20021;-86
2022/09/15 14:45:11;;;;;;;3.13;2.45;;;;;;;;;;5055418;28;20025;-86
2022/09/15 14:47:38;;;;;;;2.47;2.22;;;;;;;;;;5050279;28;20079;-86
2022/09/15 14:50:14;;;;;;;3.03;2.13;;;;;;;;;;5055563;28;20029;-86
2022/09/15 14:52:43;;;;;;;3.08;2.33;;;;;;;;;;5055562;28;20032;-85
2022/09/15 14:55:22;;;;;;;2.63;2.05;;;;;;;;;;5056268;28;20036;-86
2022/09/15 14:57:57;;;;;;;2.55;2.00;;;;;;;;;;5054627;28;20098;-86
2022/09/15 15:00:28;;;;;;;3.25;2.25;;;;;;;;;;5055065;28;20032;-87
2022/09/15 15:02:56;;;;;;;3.65;2.42;;;;;;;;;;5054116;28;20024;-86
2022/09/15 15:05:42;;;;;;;2.63;2.25;;;;;;;;;;5054109;28;20023;-85
2022/09/15 15:08:11;;;;;;;6.55;2.50;;;;;;;;;;5054212;28;20092;-85
2022/09/15 15:10:37;;;;;;;5.18;2.30;;;;;;;;;;5055051;28;20500;-86
2022/09/15 15:13:15;;;;;;;2.72;2.15;;;;;;;;;;5054376;28;20029;-86
2022/09/15 15:15:41;;;;;;;5.40;2.40;;;;;;;;;;5054582;28;20022;-86
2022/09/15 15:18:34;;;;;;;4.53;2.30;;;;;;;;;;5052625;28;20044;-85
2022/09/15 15:21:00;;;;;;;4.32;2.38;;;;;;;;;;5054626;28;20035;-86